Enter the Airport ICAO Code

Search by Airport or City

Current Weather

PAEN | Kenai Municipal Airport

Kenai, Alaska, United States

Last Update 24 Minutes Ago

Partly Cloudy Sky

Temperature of 02 ēC

Strong Winds from North with Gusts

Temperature

02 ēC

Dew Point Temperature

05 ēC Below Zero

Relative Humidity

59.67 %

Wind Direction

North (020ē, Without Significant Variations)

Wind Velocity

43 km/h (23 kt)

Gusts

57 km/h (31 kt)

Visibility

Greater than 10 Miles

Sea Level Pressure

29.41 inHg (Inches of Mercury)

Layers of Clouds

30% to 60% of Sky Covered from 2134 mts (7000 ft) Above Ground Level.

METAR PAEN 160653Z AUTO 02023G31KT 10SM SCT070 02/M05 A2941 RMK AO2 PK WND 02033/0626 SLP961 T00221050 TSNO

Weather Forecast

PAEN | Kenai Municipal Airport

Kenai, Alaska, United States

Forecast valid for the next 23 Hours

From now on it is expected:

Mostly Cloudy Sky

Moderate to Strong Winds from NorthEast with Gusts

In 5 hours it is expected the begining of:

Moderate Winds from NorthEast

Maximum Temperature

No Data

Minimum Temperature

No Data

TAF PAEN 160521Z 1606/1706 03017G25KT P6SM SCT060 BKN100 FM161200 03014KT P6SM SCT060 BKN100